Terminal Aerodrome Forecast
Issued by NWS Brownsville, TX

Home | Current Version | Previous Version | Text Only | Print | Product List | Glossary On
Versions: 1 2 3 4 5 6 7 8 9 10 11 12 13 14 15 16 17 18 19 20 21 22 23 24 25 26 27 28 29 30 31 32 33 34
000
FTUS44 KBRO 152300
TAFMFE
TAF
KMFE 152340Z 1600/1624 01005KT P6SM SCT035 SCT070 BKN090
     FM160300 00000KT P6SM VCSH SCT030 OVC050
      TEMPO 1603/1606 5SM -TSRA BKN030CB BKN050
     FM160600 26002KT P6SM SCT040 OVC250 PROB30 1609/1612 5SM -TSRA
      BKN050CB
     FM161800 17010KT P6SM BKN025 PROB30 1618/1621 5SM -TSRA
      BKN025CB
     FM162100 18010KT P6SM SCT030 BKN150 PROB30 1621/1624 5SM -TSRA
      BKN030CB=

USA.gov is the U.S. government's official web portal to all federal, state and local government web resources and services.